createdAt,value
2018-06-15T00:00:19.580Z,94168.54
2018-06-15T00:02:53.577Z,94177.34
2018-06-15T00:05:22.580Z,94171.00
2018-06-15T00:07:51.593Z,94167.83
2018-06-15T00:10:20.633Z,94175.88
2018-06-15T00:12:50.400Z,94167.77
2018-06-15T00:15:19.476Z,94168.17
2018-06-15T00:17:48.498Z,94165.28
2018-06-15T00:20:17.543Z,94171.68
2018-06-15T00:22:46.609Z,94171.00
2018-06-15T00:25:15.583Z,94180.39
2018-06-15T00:27:44.743Z,94183.41
2018-06-15T00:30:13.771Z,94179.95
2018-06-15T00:32:43.033Z,94178.22
2018-06-15T00:35:12.064Z,94179.09
2018-06-15T00:37:41.271Z,94172.64
2018-06-15T00:40:10.269Z,94171.28
2018-06-15T00:42:39.248Z,94178.72
2018-06-15T00:45:08.320Z,94186.42
2018-06-15T00:47:37.307Z,94191.17
2018-06-15T00:50:06.395Z,94184.83
2018-06-15T00:52:35.605Z,94187.11
2018-06-15T00:55:04.572Z,94185.02
2018-06-15T00:57:45.776Z,94185.23
2018-06-15T01:00:14.898Z,94191.91
2018-06-15T01:02:43.859Z,94187.45
2018-06-15T01:05:12.978Z,94186.66
2018-06-15T01:07:42.443Z,94187.22
2018-06-15T01:10:11.512Z,94179.86
2018-06-15T01:12:40.485Z,94183.77
2018-06-15T01:15:09.496Z,94184.84
2018-06-15T01:17:39.138Z,94183.64
2018-06-15T01:20:08.446Z,94179.35
2018-06-15T01:22:37.539Z,94175.16
2018-06-15T01:25:06.897Z,94178.15
2018-06-15T01:27:35.910Z,94175.38
2018-06-15T01:30:05.576Z,94174.94
2018-06-15T01:32:34.817Z,94172.90
2018-06-15T01:35:04.100Z,94172.33
2018-06-15T01:37:33.066Z,94165.59
2018-06-15T01:40:02.134Z,94166.39
2018-06-15T01:42:31.479Z,94162.65
2018-06-15T01:45:00.618Z,94163.44
2018-06-15T01:47:29.651Z,94158.81
2018-06-15T01:49:58.609Z,94162.44
2018-06-15T01:52:27.674Z,94159.17
2018-06-15T01:54:56.660Z,94164.88
2018-06-15T01:57:25.898Z,94164.98
2018-06-15T01:59:54.972Z,94165.05
2018-06-15T02:02:24.095Z,94163.74
2018-06-15T02:04:53.075Z,94167.36
2018-06-15T02:07:22.097Z,94168.54
2018-06-15T02:09:51.225Z,94164.92
2018-06-15T02:12:20.416Z,94171.36
2018-06-15T02:14:49.429Z,94168.98
2018-06-15T02:17:18.477Z,94157.55
2018-06-15T02:19:47.459Z,94164.86
2018-06-15T02:22:16.460Z,94163.20
2018-06-15T02:24:45.455Z,94161.17
2018-06-15T02:27:14.436Z,94163.33
2018-06-15T02:29:43.539Z,94160.28
2018-06-15T02:32:12.765Z,94155.59
2018-06-15T02:34:41.868Z,94163.05
2018-06-15T02:37:10.994Z,94164.50
2018-06-15T02:39:40.203Z,94166.31
2018-06-15T02:42:09.285Z,94166.22
2018-06-15T02:44:38.363Z,94170.34
2018-06-15T02:47:07.460Z,94169.43
2018-06-15T02:49:36.448Z,94167.97
2018-06-15T02:52:05.453Z,94172.44
2018-06-15T02:54:34.477Z,94174.03
2018-06-15T02:57:03.484Z,94171.65
2018-06-15T02:59:33.411Z,94169.91
2018-06-15T03:02:02.483Z,94173.45
2018-06-15T03:04:31.425Z,94168.98
2018-06-15T03:07:00.439Z,94167.46
2018-06-15T03:09:29.456Z,94176.91
2018-06-15T03:11:58.472Z,94168.89
2018-06-15T03:14:27.509Z,94172.79
2018-06-15T03:16:56.588Z,94174.41
2018-06-15T03:19:25.583Z,94176.57
2018-06-15T03:21:54.572Z,94178.09
2018-06-15T03:24:23.559Z,94181.55
2018-06-15T03:26:52.634Z,94184.73
2018-06-15T03:29:21.688Z,94184.31
2018-06-15T03:31:50.836Z,94182.50
2018-06-15T03:34:19.825Z,94184.78
2018-06-15T03:36:49.399Z,94186.25
2018-06-15T03:39:18.637Z,94185.80
2018-06-15T03:41:48.496Z,94186.09
2018-06-15T03:44:17.595Z,94179.97
2018-06-15T03:46:46.569Z,94174.53
2018-06-15T03:49:15.595Z,94178.37
2018-06-15T03:51:44.677Z,94181.71
2018-06-15T03:54:14.010Z,94180.63
2018-06-15T03:56:43.274Z,94184.87
2018-06-15T03:59:12.255Z,94178.31
2018-06-15T04:01:41.587Z,94186.09
2018-06-15T04:04:10.907Z,94180.79
2018-06-15T04:06:40.268Z,94176.13
2018-06-15T04:09:10.482Z,94187.39
2018-06-15T04:11:39.798Z,94180.38
2018-06-15T04:14:08.775Z,94173.36
2018-06-15T04:16:38.283Z,94178.13
2018-06-15T04:19:07.781Z,94179.77
2018-06-15T04:21:37.157Z,94182.63
2018-06-15T04:24:06.996Z,94193.45
2018-06-15T04:26:36.517Z,94194.56
2018-06-15T04:29:05.880Z,94196.14
2018-06-15T04:31:35.690Z,94197.00
2018-06-15T04:34:04.936Z,94197.45
2018-06-15T04:36:34.286Z,94195.86
2018-06-15T04:39:03.437Z,94195.92
2018-06-15T04:41:32.527Z,94183.61
2018-06-15T04:44:01.540Z,94189.38
2018-06-15T04:46:30.623Z,94188.48
2018-06-15T04:48:59.712Z,94183.94
2018-06-15T04:51:28.813Z,94191.98
2018-06-15T04:53:58.087Z,94189.02
2018-06-15T04:56:27.423Z,94190.09
2018-06-15T04:58:56.478Z,94195.58
2018-06-15T05:01:25.506Z,94192.63
2018-06-15T05:03:54.592Z,94192.45
2018-06-15T05:06:23.655Z,94193.37
2018-06-15T05:08:52.694Z,94199.16
2018-06-15T05:11:21.877Z,94193.10
2018-06-15T05:13:50.890Z,94198.53
2018-06-15T05:16:19.928Z,94193.87
2018-06-15T05:18:48.928Z,94194.75
2018-06-15T05:21:17.953Z,94193.45
2018-06-15T05:23:54.020Z,94189.42
2018-06-15T05:26:23.842Z,94189.99
2018-06-15T05:28:52.907Z,94188.17
2018-06-15T05:31:22.404Z,94183.67
2018-06-15T05:33:51.961Z,94185.30
2018-06-15T05:36:21.465Z,94186.05
2018-06-15T05:38:50.894Z,94178.27
2018-06-15T05:41:21.008Z,94181.60
2018-06-15T05:43:50.077Z,94181.72
2018-06-15T05:46:19.392Z,94186.23
2018-06-15T05:48:48.702Z,94186.35
2018-06-15T05:51:18.958Z,94184.61
2018-06-15T05:53:48.336Z,94187.27
2018-06-15T05:56:17.538Z,94193.11
2018-06-15T05:58:46.964Z,94195.84
2018-06-15T06:01:16.411Z,94198.88
2018-06-15T06:03:45.852Z,94195.98
2018-06-15T06:06:15.316Z,94197.18
2018-06-15T06:08:44.535Z,94204.58
2018-06-15T06:11:14.040Z,94208.20
2018-06-15T06:13:43.430Z,94205.49
2018-06-15T06:16:12.942Z,94208.53
2018-06-15T06:18:42.320Z,94206.95
2018-06-15T06:21:11.750Z,94200.56
2018-06-15T06:23:41.506Z,94202.14
2018-06-15T06:26:10.901Z,94203.27
2018-06-15T06:28:40.509Z,94206.63
2018-06-15T06:31:10.349Z,94204.84
2018-06-15T06:33:39.785Z,94206.23
2018-06-15T06:36:09.247Z,94205.20
2018-06-15T06:38:38.813Z,94203.16
2018-06-15T06:41:08.043Z,94199.17
2018-06-15T06:43:37.689Z,94198.22
2018-06-15T06:46:06.775Z,94193.37
2018-06-15T06:48:35.768Z,94201.59
2018-06-15T06:51:05.268Z,94197.97
2018-06-15T06:53:34.531Z,94198.19
2018-06-15T06:56:03.578Z,94199.33
2018-06-15T06:58:32.647Z,94198.22
2018-06-15T07:01:02.427Z,94203.39
2018-06-15T07:03:31.493Z,94201.52
2018-06-15T07:06:00.608Z,94198.77
2018-06-15T07:08:31.115Z,94194.85
2018-06-15T07:11:00.161Z,94199.98
2018-06-15T07:13:29.199Z,94202.52
2018-06-15T07:15:58.212Z,94196.79
2018-06-15T07:18:27.297Z,94197.67
2018-06-15T07:20:56.404Z,94193.55
2018-06-15T07:23:25.486Z,94198.35
2018-06-15T07:25:54.643Z,94191.42
2018-06-15T07:28:23.682Z,94190.94
2018-06-15T07:30:52.811Z,94192.13
2018-06-15T07:33:21.939Z,94191.76
2018-06-15T07:35:51.245Z,94193.87
2018-06-15T07:38:20.586Z,94185.41
2018-06-15T07:40:49.545Z,94185.14
2018-06-15T07:43:18.619Z,94184.94
2018-06-15T07:45:47.667Z,94181.89
2018-06-15T07:48:16.670Z,94182.23
2018-06-15T07:50:45.756Z,94191.50
2018-06-15T07:53:15.456Z,94182.62
2018-06-15T07:55:44.840Z,94185.23
2018-06-15T07:58:13.905Z,94181.88
2018-06-15T08:00:42.933Z,94182.17
2018-06-15T08:03:12.264Z,94180.59
2018-06-15T08:05:41.345Z,94182.29
2018-06-15T08:08:10.382Z,94182.38
2018-06-15T08:10:39.381Z,94184.48
2018-06-15T08:13:09.123Z,94180.56
2018-06-15T08:15:38.254Z,94173.92
2018-06-15T08:18:07.241Z,94179.89
2018-06-15T08:20:36.189Z,94173.80
2018-06-15T08:23:05.340Z,94163.93
2018-06-15T08:25:34.343Z,94167.45
2018-06-15T08:28:03.407Z,94164.33
2018-06-15T08:30:38.506Z,94160.60
2018-06-15T08:33:07.806Z,94162.70
2018-06-15T08:35:37.176Z,94160.09
2018-06-15T08:38:06.295Z,94162.21
2018-06-15T08:40:35.254Z,94158.54
2018-06-15T08:43:04.311Z,94154.82
2018-06-15T08:45:33.386Z,94156.78
2018-06-15T08:48:02.450Z,94156.66
2018-06-15T08:50:31.460Z,94153.80
2018-06-15T08:53:00.456Z,94161.40
2018-06-15T08:55:29.442Z,94151.97
2018-06-15T08:57:58.591Z,94152.77
2018-06-15T09:00:27.684Z,94151.98
2018-06-15T09:02:56.672Z,94144.39
2018-06-15T09:05:25.892Z,94146.47
2018-06-15T09:07:54.989Z,94143.07
2018-06-15T09:10:24.090Z,94146.22
2018-06-15T09:12:53.130Z,94144.88
2018-06-15T09:15:22.158Z,94149.89
2018-06-15T09:17:51.188Z,94147.23
2018-06-15T09:20:20.288Z,94150.14
2018-06-15T09:22:49.296Z,94150.16
2018-06-15T09:25:18.357Z,94163.28
2018-06-15T09:27:47.381Z,94155.14
2018-06-15T09:30:16.493Z,94159.09
2018-06-15T09:32:45.620Z,94157.53
2018-06-15T09:35:14.620Z,94151.47
2018-06-15T09:37:44.078Z,94155.14
2018-06-15T09:40:13.180Z,94164.85
2018-06-15T09:42:42.477Z,94163.56
2018-06-15T09:45:11.502Z,94167.52
2018-06-15T09:47:40.689Z,94165.91
2018-06-15T09:50:09.799Z,94166.95
2018-06-15T09:52:39.047Z,94169.55
2018-06-15T09:55:08.028Z,94160.64
2018-06-15T09:57:37.201Z,94163.98
2018-06-15T10:00:06.228Z,94162.51
2018-06-15T10:02:36.554Z,94164.89
2018-06-15T10:05:05.695Z,94176.45
2018-06-15T10:07:34.694Z,94163.03
2018-06-15T10:10:03.764Z,94174.87
2018-06-15T10:12:33.163Z,94172.19
2018-06-15T10:15:02.265Z,94176.66
2018-06-15T10:17:31.380Z,94162.39
2018-06-15T10:20:01.185Z,94173.42
2018-06-15T10:22:30.307Z,94183.19
2018-06-15T10:24:59.400Z,94185.87
2018-06-15T10:27:28.416Z,94186.95
2018-06-15T10:29:57.466Z,94181.39
2018-06-15T10:32:26.550Z,94174.33
2018-06-15T10:34:55.577Z,94184.55
2018-06-15T10:37:24.690Z,94182.94
2018-06-15T10:39:53.729Z,94183.98
2018-06-15T10:42:22.865Z,94180.25
2018-06-15T10:44:52.720Z,94177.13
2018-06-15T10:47:22.156Z,94177.66
2018-06-15T10:49:51.179Z,94174.11
2018-06-15T10:52:20.146Z,94178.71
2018-06-15T10:54:49.239Z,94179.41
2018-06-15T10:57:18.309Z,94179.30
2018-06-15T10:59:47.414Z,94176.56
2018-06-15T11:02:16.477Z,94182.53
2018-06-15T11:04:45.491Z,94176.56
2018-06-15T11:07:14.570Z,94180.52
2018-06-15T11:09:43.767Z,94185.17
2018-06-15T11:12:12.957Z,94184.94
2018-06-15T11:14:43.143Z,94181.30
2018-06-15T11:17:12.278Z,94187.10
2018-06-15T11:19:41.608Z,94181.20
2018-06-15T11:22:11.074Z,94183.09
2018-06-15T11:24:40.365Z,94189.44
2018-06-15T11:27:09.441Z,94179.75
2018-06-15T11:29:39.012Z,94176.86
2018-06-15T11:32:08.837Z,94184.91
2018-06-15T11:34:38.703Z,94183.14
2018-06-15T11:37:08.242Z,94176.03
2018-06-15T11:39:37.325Z,94180.31
2018-06-15T11:42:06.918Z,94182.38
2018-06-15T11:44:36.052Z,94179.73
2018-06-15T11:47:05.095Z,94182.16
2018-06-15T11:49:34.249Z,94175.69
2018-06-15T11:52:03.314Z,94179.39
2018-06-15T11:54:33.150Z,94169.50
2018-06-15T11:57:02.270Z,94179.63
2018-06-15T11:59:31.336Z,94181.57
2018-06-15T12:02:00.470Z,94182.16
2018-06-15T12:04:29.496Z,94185.02
2018-06-15T12:06:58.543Z,94180.65
2018-06-15T12:09:27.547Z,94181.75
2018-06-15T12:11:56.876Z,94186.48
2018-06-15T12:14:25.840Z,94190.72
2018-06-15T12:16:55.493Z,94184.56
2018-06-15T12:19:24.455Z,94186.34
2018-06-15T12:21:54.040Z,94190.94
2018-06-15T12:24:29.364Z,94184.05
2018-06-15T12:26:58.469Z,94192.37
2018-06-15T12:29:27.571Z,94192.89
2018-06-15T12:31:56.760Z,94189.63
2018-06-15T12:34:25.830Z,94187.17
2018-06-15T12:36:54.890Z,94188.94
2018-06-15T12:39:24.105Z,94196.79
2018-06-15T12:41:54.544Z,94196.69
2018-06-15T12:44:24.855Z,94190.48
2018-06-15T12:46:53.900Z,94190.58
2018-06-15T12:49:23.322Z,94192.91
2018-06-15T12:51:53.348Z,94188.72
2018-06-15T12:54:22.459Z,94191.31
2018-06-15T12:56:51.436Z,94187.86
2018-06-15T12:59:20.467Z,94187.84
2018-06-15T13:01:49.516Z,94184.69
2018-06-15T13:04:19.299Z,94191.45
2018-06-15T13:06:48.485Z,94179.97
2018-06-15T13:09:17.598Z,94187.28
2018-06-15T13:11:46.662Z,94189.64
2018-06-15T13:14:15.689Z,94179.44
2018-06-15T13:16:44.719Z,94190.12
2018-06-15T13:19:13.814Z,94180.17
2018-06-15T13:21:42.856Z,94172.38
2018-06-15T13:24:12.222Z,94172.91
2018-06-15T13:26:41.356Z,94177.04
2018-06-15T13:29:10.370Z,94168.48
2018-06-15T13:31:39.410Z,94175.02
2018-06-15T13:34:08.794Z,94172.43
2018-06-15T13:36:38.121Z,94172.94
2018-06-15T13:39:10.787Z,94165.63
2018-06-15T13:41:39.794Z,94164.23
2018-06-15T13:44:09.165Z,94168.04
2018-06-15T13:46:38.492Z,94169.29
2018-06-15T13:49:07.610Z,94169.73
2018-06-15T13:51:36.840Z,94166.39
2018-06-15T13:54:05.900Z,94159.89
2018-06-15T13:56:34.889Z,94156.93
2018-06-15T13:59:03.949Z,94161.48
2018-06-15T14:01:33.007Z,94164.77
2018-06-15T14:04:02.125Z,94162.69
2018-06-15T14:06:31.246Z,94157.72
2018-06-15T14:09:00.383Z,94159.12
2018-06-15T14:11:29.453Z,94163.16
2018-06-15T14:13:58.588Z,94149.34
2018-06-15T14:16:27.684Z,94152.71
2018-06-15T14:18:57.112Z,94153.31
2018-06-15T14:21:27.512Z,94158.05
2018-06-15T14:23:56.608Z,94163.29
2018-06-15T14:26:25.680Z,94159.17
2018-06-15T14:28:54.901Z,94154.17
2018-06-15T14:31:24.091Z,94159.08
2018-06-15T14:33:55.412Z,94158.05
2018-06-15T14:36:24.574Z,94157.05
2018-06-15T14:38:53.649Z,94147.67
2018-06-15T14:41:22.712Z,94142.70
2018-06-15T14:43:51.799Z,94141.73
2018-06-15T14:46:20.869Z,94140.66
2018-06-15T14:48:50.003Z,94145.69
2018-06-15T14:51:19.033Z,94140.11
2018-06-15T14:53:48.016Z,94145.73
2018-06-15T14:56:17.039Z,94145.14
2018-06-15T14:58:46.093Z,94144.02
2018-06-15T15:01:15.211Z,94136.21
2018-06-15T15:03:44.376Z,94137.23
2018-06-15T15:06:14.192Z,94139.87
2018-06-15T15:08:43.139Z,94132.27
2018-06-15T15:11:12.242Z,94141.78
2018-06-15T15:13:41.334Z,94135.45
2018-06-15T15:16:10.438Z,94137.23
2018-06-15T15:18:39.667Z,94133.50
2018-06-15T15:21:08.730Z,94131.62
2018-06-15T15:23:38.001Z,94133.98
2018-06-15T15:26:07.195Z,94135.84
2018-06-15T15:28:36.318Z,94125.89
2018-06-15T15:31:05.597Z,94125.33
2018-06-15T15:33:34.650Z,94120.91
2018-06-15T15:36:03.973Z,94116.70
2018-06-15T15:38:33.064Z,94116.53
2018-06-15T15:41:02.189Z,94109.96
2018-06-15T15:43:31.189Z,94105.58
2018-06-15T15:46:00.165Z,94108.02
2018-06-15T15:48:29.352Z,94108.19
2018-06-15T15:50:58.414Z,94106.64
2018-06-15T15:53:27.485Z,94112.42
2018-06-15T15:55:57.046Z,94118.95
2018-06-15T15:58:26.025Z,94112.88
2018-06-15T16:00:55.175Z,94114.97
2018-06-15T16:03:24.320Z,94120.84
2018-06-15T16:05:53.398Z,94112.97
2018-06-15T16:08:22.528Z,94119.78
2018-06-15T16:10:51.986Z,94116.28
2018-06-15T16:13:21.399Z,94118.77
2018-06-15T16:15:50.899Z,94115.80
2018-06-15T16:18:20.388Z,94112.88
2018-06-15T16:20:49.684Z,94109.09
2018-06-15T16:23:19.034Z,94112.42
2018-06-15T16:25:48.435Z,94106.00
2018-06-15T16:28:18.044Z,94110.41
2018-06-15T16:30:47.477Z,94105.70
2018-06-15T16:33:16.831Z,94115.35
2018-06-15T16:35:46.902Z,94108.95
2018-06-15T16:38:16.410Z,94111.16
2018-06-15T16:40:45.776Z,94114.18
2018-06-15T16:43:15.354Z,94120.55
2018-06-15T16:45:44.796Z,94122.92
2018-06-15T16:48:14.052Z,94127.89
2018-06-15T16:50:43.388Z,94124.74
2018-06-15T16:53:12.438Z,94128.81
2018-06-15T16:55:41.493Z,94127.33
2018-06-15T16:58:11.928Z,94130.05
2018-06-15T17:00:41.418Z,94127.98
2018-06-15T17:03:10.936Z,94133.23
2018-06-15T17:05:40.806Z,94130.58
2018-06-15T17:08:10.621Z,94130.84
2018-06-15T17:10:39.897Z,94131.67
2018-06-15T17:13:09.285Z,94133.50
2018-06-15T17:15:38.647Z,94136.67
2018-06-15T17:18:08.616Z,94141.45
2018-06-15T17:20:37.966Z,94133.86
2018-06-15T17:23:07.394Z,94138.84
2018-06-15T17:25:36.759Z,94141.75
2018-06-15T17:28:06.562Z,94140.49
2018-06-15T17:30:36.356Z,94143.12
2018-06-15T17:33:05.781Z,94137.61
2018-06-15T17:35:35.109Z,94137.07
2018-06-15T17:38:04.267Z,94142.37
2018-06-15T17:40:33.410Z,94147.39
2018-06-15T17:43:02.467Z,94145.83
2018-06-15T17:45:31.557Z,94150.07
2018-06-15T17:48:00.784Z,94150.60
2018-06-15T17:50:30.504Z,94157.45
2018-06-15T17:52:59.747Z,94157.75
2018-06-15T17:55:28.888Z,94150.91
2018-06-15T17:57:58.091Z,94156.96
2018-06-15T18:00:27.319Z,94160.94
2018-06-15T18:02:56.815Z,94162.48
2018-06-15T18:05:26.195Z,94160.14
2018-06-15T18:07:55.672Z,94155.95
2018-06-15T18:10:25.199Z,94157.27
2018-06-15T18:12:54.592Z,94162.00
2018-06-15T18:15:24.102Z,94160.94
2018-06-15T18:17:53.475Z,94165.91
2018-06-15T18:20:24.259Z,94158.55
2018-06-15T18:22:54.562Z,94159.33
2018-06-15T18:25:24.032Z,94162.22
2018-06-15T18:27:53.413Z,94167.98
2018-06-15T18:30:22.595Z,94168.26
2018-06-15T18:32:52.144Z,94167.45
2018-06-15T18:35:21.488Z,94162.73
2018-06-15T18:37:52.461Z,94162.98
2018-06-15T18:40:21.907Z,94166.62
2018-06-15T18:42:51.221Z,94168.47
2018-06-15T18:45:20.735Z,94164.52
2018-06-15T18:47:50.285Z,94171.30
2018-06-15T18:50:19.553Z,94173.64
2018-06-15T18:52:49.720Z,94173.38
2018-06-15T18:55:19.116Z,94173.88
2018-06-15T18:57:48.475Z,94178.33
2018-06-15T19:00:17.838Z,94182.27
2018-06-15T19:02:47.145Z,94187.14
2018-06-15T19:05:17.670Z,94185.54
2018-06-15T19:07:48.228Z,94193.63
2018-06-15T19:10:18.012Z,94202.78
2018-06-15T19:12:47.600Z,94203.75
2018-06-15T19:15:16.991Z,94204.84
2018-06-15T19:17:46.352Z,94210.00
2018-06-15T19:20:15.682Z,94211.29
2018-06-15T19:22:45.276Z,94218.34
2018-06-15T19:25:14.631Z,94213.55
2018-06-15T19:27:44.075Z,94223.68
2018-06-15T19:30:13.568Z,94221.66
2018-06-15T19:32:44.021Z,94224.74
2018-06-15T19:35:13.403Z,94229.64
2018-06-15T19:37:42.858Z,94229.84
2018-06-15T19:40:12.360Z,94230.44
2018-06-15T19:42:41.761Z,94229.84
2018-06-15T19:45:11.318Z,94227.71
2018-06-15T19:47:40.832Z,94235.27
2018-06-15T19:50:10.245Z,94244.06
2018-06-15T19:52:39.546Z,94236.70
2018-06-15T19:55:08.814Z,94237.45
2018-06-15T19:57:38.259Z,94229.88
2018-06-15T20:00:08.527Z,94225.06
2018-06-15T20:02:37.895Z,94231.75
2018-06-15T20:05:07.332Z,94235.12
2018-06-15T20:07:36.660Z,94239.84
2018-06-15T20:10:05.960Z,94236.09
2018-06-15T20:12:35.248Z,94243.70
2018-06-15T20:15:04.962Z,94242.57
2018-06-15T20:17:34.418Z,94243.33
2018-06-15T20:20:03.832Z,94248.48
2018-06-15T20:22:33.835Z,94254.68
2018-06-15T20:25:05.127Z,94247.90
2018-06-15T20:27:34.451Z,94255.67
2018-06-15T20:30:04.059Z,94244.94
2018-06-15T20:32:33.443Z,94243.53
2018-06-15T20:35:02.698Z,94239.95
2018-06-15T20:37:32.297Z,94244.12
2018-06-15T20:40:01.567Z,94240.05
2018-06-15T20:42:30.954Z,94254.05
2018-06-15T20:45:00.578Z,94252.59
2018-06-15T20:47:30.089Z,94254.33
2018-06-15T20:49:59.716Z,94263.16
2018-06-15T20:52:29.247Z,94270.42
2018-06-15T20:54:58.701Z,94265.34
2018-06-15T20:57:28.916Z,94268.98
2018-06-15T20:59:58.425Z,94259.08
2018-06-15T21:02:27.714Z,94267.20
2018-06-15T21:04:57.030Z,94270.34
2018-06-15T21:07:27.412Z,94273.83
2018-06-15T21:09:57.100Z,94275.84
2018-06-15T21:12:26.557Z,94278.36
2018-06-15T21:14:56.078Z,94278.00
2018-06-15T21:17:25.456Z,94274.44
2018-06-15T21:19:54.941Z,94281.37
2018-06-15T21:22:24.353Z,94283.64
2018-06-15T21:24:53.728Z,94278.60
2018-06-15T21:27:23.317Z,94279.69
2018-06-15T21:29:53.020Z,94282.30
2018-06-15T21:32:22.535Z,94286.51
2018-06-15T21:34:52.211Z,94281.37
2018-06-15T21:37:22.259Z,94281.97
2018-06-15T21:39:51.867Z,94277.30
2018-06-15T21:42:23.290Z,94286.96
2018-06-15T21:44:52.749Z,94287.67
2018-06-15T21:47:22.344Z,94287.71
2018-06-15T21:49:52.698Z,94283.61
2018-06-15T21:52:22.133Z,94278.66
2018-06-15T21:54:51.635Z,94287.16
2018-06-15T21:57:21.116Z,94281.75
2018-06-15T21:59:50.548Z,94282.40
2018-06-15T22:02:20.106Z,94280.66
2018-06-15T22:04:49.403Z,94275.50
2018-06-15T22:07:18.822Z,94279.78
2018-06-15T22:09:48.322Z,94278.52
2018-06-15T22:12:17.816Z,94275.39
2018-06-15T22:14:47.115Z,94285.95
2018-06-15T22:17:16.608Z,94279.22
2018-06-15T22:19:46.069Z,94285.20
2018-06-15T22:22:15.499Z,94284.73
2018-06-15T22:24:45.036Z,94280.86
2018-06-15T22:27:15.374Z,94277.87
2018-06-15T22:29:45.567Z,94284.58
2018-06-15T22:32:15.077Z,94277.55
2018-06-15T22:34:44.341Z,94284.11
2018-06-15T22:37:14.510Z,94285.09
2018-06-15T22:39:43.793Z,94287.42
2018-06-15T22:42:13.214Z,94283.65
2018-06-15T22:44:42.630Z,94281.97
2018-06-15T22:47:12.074Z,94278.52
2018-06-15T22:49:41.639Z,94284.30
2018-06-15T22:52:11.152Z,94285.66
2018-06-15T22:54:40.653Z,94287.06
2018-06-15T22:57:10.029Z,94294.91
2018-06-15T22:59:39.539Z,94291.64
2018-06-15T23:02:09.085Z,94288.70
2018-06-15T23:04:38.601Z,94292.66
2018-06-15T23:07:07.901Z,94288.08
2018-06-15T23:09:37.264Z,94289.58
2018-06-15T23:12:06.506Z,94285.66
2018-06-15T23:14:35.963Z,94288.31
2018-06-15T23:17:05.420Z,94289.39
2018-06-15T23:19:34.857Z,94287.19
2018-06-15T23:22:04.266Z,94279.59
2018-06-15T23:24:33.720Z,94277.44
2018-06-15T23:27:02.988Z,94275.25
2018-06-15T23:29:32.309Z,94282.20
2018-06-15T23:32:01.595Z,94289.06
2018-06-15T23:34:30.919Z,94290.50
2018-06-15T23:37:00.252Z,94287.70
2018-06-15T23:39:29.581Z,94286.64
2018-06-15T23:41:58.988Z,94285.08
2018-06-15T23:44:28.312Z,94283.27
2018-06-15T23:46:57.610Z,94281.97
2018-06-15T23:49:27.004Z,94280.90
2018-06-15T23:51:56.339Z,94279.36
2018-06-15T23:54:25.613Z,94281.78
2018-06-15T23:56:55.843Z,94290.04
2018-06-15T23:59:25.201Z,94283.16
